Time;durP1;ratioP1;P1;durP2;ratioP2;P2;SDS_P1;SDS_P2;PMS_P1;PMS_P2;Temp;Humidity;BMP_temperature;BMP_pressure;BME280_temperature;BME280_humidity;BME280_pressure;Samples;Min_cycle;Max_cycle;Signal;HPM_P1;HPM_P2
2021/12/07 00:02:01;;;;;;;6.68;2.20;;;;;;;3.53;96.46;100595.63;5032143;28;20030;-80
2021/12/07 00:04:27;;;;;;;19.38;2.10;;;;;;;3.61;96.41;100602.41;5015886;28;20040;-80
2021/12/07 00:06:52;;;;;;;7.75;1.55;;;;;;;3.71;96.13;100605.72;5050631;28;20089;-80
2021/12/07 00:09:18;;;;;;;9.93;2.17;;;;;;;3.79;96.01;100603.00;5031314;28;20037;-80
2021/12/07 00:11:44;;;;;;;11.48;2.33;;;;;;;3.85;95.76;100608.06;5015291;28;20031;-80
2021/12/07 00:14:14;;;;;;;11.80;2.20;;;;;;;3.92;95.67;100614.00;5012391;28;20028;-80
2021/12/07 00:16:43;;;;;;;8.52;2.30;;;;;;;3.96;95.24;100613.06;5030832;28;20029;-80
2021/12/07 00:19:10;;;;;;;8.57;2.17;;;;;;;3.99;95.12;100616.47;5030016;28;20024;-80
2021/12/07 00:21:35;;;;;;;14.15;2.33;;;;;;;4.06;94.87;100621.53;5020398;28;20106;-80
2021/12/07 00:24:01;;;;;;;17.83;2.05;;;;;;;4.11;94.27;100628.38;5035853;28;20036;-80
2021/12/07 00:26:26;;;;;;;13.65;2.13;;;;;;;4.18;93.11;100627.38;5032961;28;20029;-79
2021/12/07 00:28:52;;;;;;;13.30;2.17;;;;;;;4.25;92.28;100627.25;5026490;28;20033;-80
2021/12/07 00:31:27;;;;;;;16.40;2.78;;;;;;;4.32;91.62;100636.63;5032505;28;20033;-80
2021/12/07 00:34:08;;;;;;;9.13;1.60;;;;;;;4.33;91.13;100633.16;5033510;28;20052;-80
2021/12/07 00:36:38;;;;;;;12.05;1.92;;;;;;;4.36;90.78;100643.47;5049701;28;20036;-80
2021/12/07 00:39:05;;;;;;;7.38;1.65;;;;;;;4.37;90.56;100647.78;5015864;28;20039;-80
2021/12/07 00:41:30;;;;;;;9.65;1.50;;;;;;;4.35;90.48;100653.00;5016097;28;20036;-80
2021/12/07 00:43:56;;;;;;;13.40;2.13;;;;;;;4.35;90.50;100655.59;5015137;28;20037;-80
2021/12/07 00:46:23;;;;;;;14.20;1.92;;;;;;;4.33;90.37;100653.88;5031577;28;20025;-80
2021/12/07 00:48:49;;;;;;;14.57;2.13;;;;;;;4.31;90.60;100661.72;5031367;28;20045;-79
2021/12/07 00:51:14;;;;;;;9.43;1.67;;;;;;;4.31;90.60;100656.53;5032493;28;20062;-80
2021/12/07 00:53:40;;;;;;;16.60;2.13;;;;;;;4.31;90.32;100660.84;5030605;28;20068;-80
2021/12/07 00:56:05;;;;;;;7.03;1.40;;;;;;;4.30;90.31;100672.13;5030766;28;20067;-80
2021/12/07 00:58:31;;;;;;;10.52;1.80;;;;;;;4.30;90.02;100669.53;5015931;28;20060;-79
2021/12/07 01:00:59;;;;;;;11.77;2.13;;;;;;;4.29;89.99;100679.00;5049095;28;20029;-80
2021/12/07 01:03:25;;;;;;;10.52;2.28;;;;;;;4.28;90.00;100679.91;5015186;28;20029;-80
2021/12/07 01:05:51;;;;;;;9.93;1.95;;;;;;;4.28;89.97;100684.25;5031089;28;20256;-80
2021/12/07 01:24:42;;;;;;;8.57;1.80;;;;;;;4.35;89.67;100720.41;5054616;28;20031;-79
2021/12/07 01:27:13;;;;;;;15.25;2.22;;;;;;;4.36;89.71;100714.31;5068997;28;20213;-79
2021/12/07 01:29:40;;;;;;;4.95;1.40;;;;;;;4.39;89.26;100716.03;5035337;28;20036;-79
2021/12/07 01:32:39;;;;;;;14.00;2.03;;;;;;;4.41;88.98;100722.03;5035653;28;20041;-80
2021/12/07 02:04:42;;;;;;;9.32;2.08;;;;;;;4.27;89.16;100770.66;5048583;28;20052;-79
2021/12/07 02:07:07;;;;;;;13.68;2.72;;;;;;;4.26;89.40;100776.72;5024212;28;20408;-79
2021/12/07 02:09:36;;;;;;;16.02;2.20;;;;;;;4.22;89.53;100788.88;5022794;28;20104;-79
2021/12/07 02:12:03;;;;;;;13.20;2.22;;;;;;;4.20;89.63;100783.75;5040243;28;20386;-79
2021/12/07 02:14:30;;;;;;;11.68;2.33;;;;;;;4.17;89.81;100794.16;5022637;28;20039;-79
2021/12/07 02:17:01;;;;;;;7.60;2.25;;;;;;;4.17;89.47;100794.16;5057237;28;20033;-79
2021/12/07 02:19:26;;;;;;;10.75;2.13;;;;;;;4.14;89.69;100791.59;5008712;28;20037;-79
2021/12/07 02:21:52;;;;;;;8.20;1.95;;;;;;;4.14;89.47;100801.09;5029410;28;20114;-79
2021/12/07 02:24:18;;;;;;;11.93;1.60;;;;;;;4.12;89.56;100801.13;5044162;28;20356;-79
2021/12/07 02:26:44;;;;;;;10.68;1.90;;;;;;;4.11;89.82;100798.56;5028042;28;20297;-79
2021/12/07 02:29:09;;;;;;;8.43;1.48;;;;;;;4.11;90.07;100806.31;5027783;28;20067;-79
2021/12/07 02:31:35;;;;;;;12.60;2.20;;;;;;;4.09;90.42;100813.28;5043575;28;20048;-79
2021/12/07 02:34:01;;;;;;;5.65;1.58;;;;;;;4.07;90.40;100815.03;5027591;28;20052;-79
2021/12/07 02:36:26;;;;;;;10.55;2.08;;;;;;;4.06;90.71;100821.97;5043756;28;20345;-79
2021/12/07 02:38:52;;;;;;;18.52;2.03;;;;;;;4.06;90.77;100821.97;5027726;28;20039;-79
2021/12/07 02:41:17;;;;;;;14.38;2.08;;;;;;;4.06;90.76;100824.56;5044437;28;20086;-79
2021/12/07 02:43:44;;;;;;;7.03;1.90;;;;;;;4.06;90.76;100827.13;5027465;28;20036;-79
2021/12/07 02:46:09;;;;;;;8.23;1.85;;;;;;;4.07;90.75;100835.75;5027231;28;20067;-79
2021/12/07 02:48:35;;;;;;;13.73;2.17;;;;;;;4.08;90.61;100827.97;5043459;28;20036;-79
2021/12/07 02:51:00;;;;;;;10.77;2.28;;;;;;;4.08;90.31;100832.31;5061329;28;20368;-79
2021/12/07 02:53:27;;;;;;;9.63;1.63;;;;;;;4.09;90.18;100840.03;5027253;28;20337;-79
2021/12/07 02:55:53;;;;;;;5.93;2.80;;;;;;;4.09;90.22;100836.59;5043444;28;20054;-79
2021/12/07 02:58:19;;;;;;;13.85;2.35;;;;;;;4.10;90.21;100840.91;5061494;28;20335;-79
2021/12/07 03:00:53;;;;;;;17.08;2.40;;;;;;;4.09;89.98;100834.84;5027765;28;20096;-79
2021/12/07 03:03:18;;;;;;;14.43;2.10;;;;;;;4.08;90.02;100837.50;5044309;28;20041;-79
2021/12/07 03:27:53;;;;;;;11.50;1.60;;;;;;;4.01;91.17;100871.25;5032047;28;20410;-79
2021/12/07 03:30:19;;;;;;;12.30;2.83;;;;;;;4.02;91.22;100875.56;5025790;28;20037;-79
2021/12/07 03:32:44;;;;;;;12.02;1.77;;;;;;;4.00;91.25;100874.72;5026741;28;20102;-79
2021/12/07 03:35:10;;;;;;;14.57;2.35;;;;;;;4.01;91.32;100873.84;5026299;28;20121;-79
2021/12/07 03:37:35;;;;;;;10.98;1.88;;;;;;;4.01;91.31;100873.84;5042366;28;20055;-79
2021/12/07 03:40:01;;;;;;;12.00;1.92;;;;;;;4.03;91.48;100887.63;5043087;28;20040;-79
2021/12/07 03:42:26;;;;;;;10.43;1.77;;;;;;;4.03;91.54;100887.63;5041737;28;20102;-79
2021/12/07 03:44:51;;;;;;;16.23;2.35;;;;;;;4.04;91.27;100889.34;5041661;28;20067;-79
2021/12/07 03:47:17;;;;;;;12.68;1.73;;;;;;;4.06;91.30;100885.88;5042248;28;20109;-79
2021/12/07 03:49:42;;;;;;;9.25;1.55;;;;;;;4.07;91.23;100880.66;5008756;28;20039;-79
2021/12/07 03:52:08;;;;;;;11.25;1.67;;;;;;;4.07;91.34;100891.03;5024690;28;20252;-79
2021/12/07 03:54:33;;;;;;;5.65;1.38;;;;;;;4.11;91.42;100899.63;5024469;28;20379;-79
2021/12/07 03:56:59;;;;;;;7.22;1.77;;;;;;;4.10;91.49;100887.56;5041793;28;20048;-79
2021/12/07 03:59:24;;;;;;;8.13;1.58;;;;;;;4.12;91.63;100888.41;5024538;28;20120;-79
2021/12/07 04:01:51;;;;;;;9.48;2.20;;;;;;;4.10;91.72;100893.59;5041536;28;20255;-79
2021/12/07 04:04:17;;;;;;;10.25;2.00;;;;;;;4.12;91.62;100894.44;5041827;28;20037;-79
2021/12/07 04:06:42;;;;;;;11.75;2.40;;;;;;;4.12;91.63;100902.22;5059483;28;20045;-79
2021/12/07 04:09:08;;;;;;;10.07;1.58;;;;;;;4.14;91.64;100905.63;5041009;28;20052;-79
2021/12/07 04:11:33;;;;;;;10.85;1.70;;;;;;;4.13;91.49;100913.44;5041356;28;20374;-79
2021/12/07 04:13:59;;;;;;;12.57;1.90;;;;;;;4.13;91.57;100909.13;5024012;28;20032;-79
2021/12/07 04:16:24;;;;;;;9.65;2.65;;;;;;;4.13;91.48;100905.66;5040745;28;20056;-79
2021/12/07 04:18:49;;;;;;;6.72;1.77;;;;;;;4.15;91.49;100909.13;5041082;28;20036;-79
2021/12/07 04:21:15;;;;;;;10.15;2.00;;;;;;;4.14;91.30;100908.22;5058535;28;20333;-79
2021/12/07 04:23:40;;;;;;;8.85;1.88;;;;;;;4.12;91.23;100903.97;5024039;28;20025;-79
2021/12/07 04:26:07;;;;;;;7.93;1.73;;;;;;;4.12;91.31;100912.56;5039461;28;20033;-79
2021/12/07 04:28:33;;;;;;;10.57;1.70;;;;;;;4.11;91.29;100912.59;5040572;28;20048;-79
2021/12/07 04:30:58;;;;;;;8.65;2.25;;;;;;;4.09;91.17;100904.84;5007527;28;20024;-79
2021/12/07 04:33:25;;;;;;;15.63;2.17;;;;;;;4.09;90.90;100907.44;5040399;28;20040;-79
2021/12/07 04:35:50;;;;;;;14.45;2.25;;;;;;;4.08;91.58;100917.84;5040170;28;20040;-79
2021/12/07 04:38:16;;;;;;;11.43;1.55;;;;;;;4.08;91.20;100910.06;5024319;28;20048;-79
2021/12/07 04:40:41;;;;;;;16.67;3.15;;;;;;;4.07;91.19;100919.56;5040172;28;20060;-79
2021/12/07 04:43:07;;;;;;;8.18;2.33;;;;;;;4.06;91.31;100911.78;5040383;28;20044;-79
2021/12/07 04:59:00;;;;;;;10.57;2.10;;;;;;;4.03;91.26;100923.06;5043264;28;20040;-79
2021/12/07 05:01:26;;;;;;;12.07;2.10;;;;;;;4.02;91.26;100930.00;5023702;28;20300;-79
2021/12/07 05:03:55;;;;;;;9.45;1.80;;;;;;;4.02;91.22;100923.94;5023611;28;20043;-79
2021/12/07 05:06:23;;;;;;;9.05;1.75;;;;;;;4.01;91.47;100928.25;5057914;28;20067;-79
2021/12/07 05:08:56;;;;;;;9.20;1.50;;;;;;;4.01;91.15;100940.38;5034561;28;20336;-79
2021/12/07 05:24:22;;;;;;;6.90;1.90;;;;;;;3.97;91.23;100967.22;4993130;28;20029;-79
2021/12/07 05:37:45;;;;;;;8.43;1.98;;;;;;;3.89;90.08;100992.31;5050969;28;20037;-79
2021/12/07 05:40:12;;;;;;;7.90;1.40;;;;;;;3.88;90.18;100995.81;5031665;28;20037;-79
2021/12/07 05:42:38;;;;;;;7.80;1.42;;;;;;;3.88;90.08;100995.81;5009954;28;20352;-79
2021/12/07 05:45:05;;;;;;;8.80;1.75;;;;;;;3.86;89.89;100990.63;5032809;28;20045;-79
2021/12/07 05:47:30;;;;;;;10.07;2.30;;;;;;;3.84;89.82;100995.84;5024750;28;20079;-79
2021/12/07 05:49:56;;;;;;;6.07;1.60;;;;;;;3.84;90.03;100992.41;5057335;28;20028;-79
2021/12/07 05:52:21;;;;;;;10.45;1.90;;;;;;;3.84;90.19;100979.44;5003570;28;20041;-79
2021/12/07 05:54:47;;;;;;;5.10;1.67;;;;;;;3.85;90.48;100978.53;5035255;28;20056;-79
2021/12/07 05:57:13;;;;;;;7.32;1.52;;;;;;;3.86;90.92;100980.28;5063476;28;20051;-79
2021/12/07 05:59:38;;;;;;;7.38;1.92;;;;;;;3.87;91.12;100970.75;5009353;28;20276;-79
2021/12/07 06:02:04;;;;;;;5.07;1.52;;;;;;;3.87;91.67;100971.63;5004010;28;20017;-79
2021/12/07 06:04:30;;;;;;;7.43;1.58;;;;;;;3.84;91.23;100976.84;5022419;28;20091;-79
2021/12/07 06:06:57;;;;;;;3.50;1.60;;;;;;;3.81;91.12;100982.06;5041718;28;20037;-79
2021/12/07 06:09:23;;;;;;;6.63;1.70;;;;;;;3.76;91.08;100979.50;5032944;28;20404;-79
2021/12/07 06:11:50;;;;;;;8.48;2.15;;;;;;;3.72;90.98;100976.97;5025822;28;20060;-79
2021/12/07 06:14:19;;;;;;;8.13;1.77;;;;;;;3.69;90.82;100982.16;5043098;28;20044;-79
2021/12/07 06:16:47;;;;;;;4.32;1.33;;;;;;;3.64;90.66;100988.25;5026425;28;20056;-79
2021/12/07 06:19:13;;;;;;;5.10;1.52;;;;;;;3.62;90.67;100991.72;5009449;28;20413;-79
2021/12/07 06:21:39;;;;;;;2.47;1.33;;;;;;;3.59;90.76;100987.44;5034846;28;20037;-80
2021/12/07 06:24:04;;;;;;;5.38;1.90;;;;;;;3.55;90.77;100988.34;5052924;28;20037;-80
2021/12/07 06:26:29;;;;;;;11.13;2.10;;;;;;;3.53;90.77;100977.16;5010170;28;20057;-79
2021/12/07 06:28:55;;;;;;;4.30;1.83;;;;;;;3.52;91.05;100977.16;4995259;28;20024;-79
2021/12/07 06:31:20;;;;;;;7.05;1.60;;;;;;;3.48;90.90;100980.66;5052369;28;20340;-79
2021/12/07 06:33:46;;;;;;;9.20;2.20;;;;;;;3.43;90.77;100981.53;5034420;28;20351;-79
2021/12/07 06:36:13;;;;;;;8.02;2.40;;;;;;;3.41;90.76;100990.19;5006512;28;20064;-79
2021/12/07 06:38:39;;;;;;;4.15;1.80;;;;;;;3.39;90.89;100991.94;5034130;28;20258;-79
2021/12/07 06:41:04;;;;;;;3.08;1.60;;;;;;;3.37;91.15;100989.38;5038273;28;20089;-79
2021/12/07 06:43:29;;;;;;;6.03;1.50;;;;;;;3.35;90.92;100987.69;5021683;28;20083;-79
2021/12/07 06:45:55;;;;;;;4.03;1.77;;;;;;;3.33;90.96;100992.88;5007479;28;20032;-79
2021/12/07 06:48:20;;;;;;;3.45;2.03;;;;;;;3.34;90.97;100991.97;5033593;28;20152;-79
2021/12/07 06:50:47;;;;;;;5.85;2.42;;;;;;;3.33;91.37;100989.41;5029687;28;20021;-79
2021/12/07 06:53:12;;;;;;;9.02;1.98;;;;;;;3.33;91.26;100991.97;5045806;28;20407;-79
2021/12/07 06:55:38;;;;;;;4.28;2.08;;;;;;;3.29;91.27;100995.47;5022351;28;20079;-79
2021/12/07 06:58:03;;;;;;;5.15;1.70;;;;;;;3.28;91.29;100991.19;5041645;28;20041;-79
2021/12/07 07:00:29;;;;;;;5.68;1.73;;;;;;;3.28;91.60;100993.78;5041156;28;20040;-79
2021/12/07 07:02:54;;;;;;;6.82;1.90;;;;;;;3.28;91.40;100988.59;5017294;28;20033;-79
2021/12/07 07:05:20;;;;;;;4.90;2.20;;;;;;;3.24;91.40;100993.78;5039197;28;20049;-79
2021/12/07 07:07:45;;;;;;;6.15;2.15;;;;;;;3.22;91.26;100995.53;5008518;28;20036;-79
2021/12/07 07:10:12;;;;;;;9.45;2.40;;;;;;;3.20;91.14;101002.47;5023864;28;20240;-79
2021/12/07 07:12:38;;;;;;;8.75;2.40;;;;;;;3.17;91.08;100999.88;5020982;28;20064;-79
2021/12/07 07:15:04;;;;;;;6.10;2.33;;;;;;;3.15;91.04;100999.03;5026929;28;20033;-79
2021/12/07 07:17:29;;;;;;;7.28;2.40;;;;;;;3.13;91.21;101000.78;5050633;28;20041;-79
2021/12/07 07:19:55;;;;;;;3.65;2.33;;;;;;;3.14;91.18;101002.47;5045714;28;20370;-79
2021/12/07 07:22:20;;;;;;;8.23;2.42;;;;;;;3.12;91.20;100996.47;5044022;28;20057;-79
2021/12/07 07:24:46;;;;;;;5.57;3.10;;;;;;;3.12;91.23;100991.28;5015040;28;20025;-79
2021/12/07 07:27:11;;;;;;;10.85;2.53;;;;;;;3.14;91.33;100983.53;5041658;28;20047;-79
2021/12/07 07:29:37;;;;;;;14.32;2.90;;;;;;;3.15;91.68;100972.31;5018589;28;20063;-79
2021/12/07 07:32:02;;;;;;;6.72;2.40;;;;;;;3.15;91.66;100962.81;5017594;28;20041;-79
2021/12/07 07:34:28;;;;;;;7.03;2.50;;;;;;;3.14;91.79;100962.81;5023842;28;20221;-79
2021/12/07 07:36:53;;;;;;;4.78;2.60;;;;;;;3.15;91.64;100965.41;5028324;28;20347;-79
2021/12/07 07:39:19;;;;;;;10.60;3.38;;;;;;;3.14;91.72;100971.44;5026148;28;20033;-79
2021/12/07 07:41:44;;;;;;;5.43;2.50;;;;;;;3.12;91.52;100965.41;5026090;28;20037;-79
2021/12/07 07:44:10;;;;;;;9.40;2.45;;;;;;;3.13;91.69;100967.13;5007669;28;20040;-79
2021/12/07 07:46:35;;;;;;;8.43;2.55;;;;;;;3.12;91.63;100962.81;5043915;28;20040;-79
2021/12/07 07:49:00;;;;;;;11.80;2.65;;;;;;;3.11;91.68;100966.31;5026078;28;20021;-79
2021/12/07 07:51:26;;;;;;;5.22;2.28;;;;;;;3.11;91.82;100976.66;5044972;28;20033;-79
2021/12/07 07:53:54;;;;;;;9.77;3.25;;;;;;;3.11;91.52;100968.88;5017193;28;20032;-79
2021/12/07 07:56:19;;;;;;;14.32;2.70;;;;;;;3.11;91.87;100971.47;5026474;28;20065;-79
2021/12/07 07:58:45;;;;;;;12.00;2.38;;;;;;;3.11;91.89;100973.19;5028793;28;20490;-79
2021/12/07 08:01:10;;;;;;;7.40;2.38;;;;;;;3.10;91.93;100969.75;5037331;28;20039;-79
2021/12/07 08:03:36;;;;;;;8.85;2.28;;;;;;;3.08;91.95;100971.50;5009070;28;20087;-79
2021/12/07 08:06:01;;;;;;;12.27;3.28;;;;;;;3.08;91.93;100974.94;5021447;28;20029;-79
2021/12/07 08:08:26;;;;;;;11.73;2.25;;;;;;;3.10;91.93;100984.41;5009703;28;20049;-79
2021/12/07 08:10:52;;;;;;;6.75;2.55;;;;;;;3.11;91.96;100992.19;5006542;28;20032;-79
2021/12/07 08:13:18;;;;;;;7.60;2.10;;;;;;;3.10;92.14;100979.25;5052932;28;20408;-79
2021/12/07 08:15:44;;;;;;;10.77;2.47;;;;;;;3.11;92.26;100984.41;5023117;28;20040;-79
2021/12/07 08:18:10;;;;;;;6.28;2.55;;;;;;;3.11;92.32;100981.81;5026648;28;20021;-79
2021/12/07 08:20:36;;;;;;;5.65;2.17;;;;;;;3.12;92.29;100983.53;5046620;28;20045;-79
2021/12/07 08:23:04;;;;;;;7.65;3.08;;;;;;;3.14;92.54;100989.53;5010884;28;20095;-79
2021/12/07 08:25:34;;;;;;;17.27;2.67;;;;;;;3.15;92.61;100991.28;5027732;28;20336;-79
2021/12/07 08:28:00;;;;;;;8.27;2.60;;;;;;;3.17;92.65;100986.09;5022178;28;20036;-79
2021/12/07 08:30:25;;;;;;;15.13;3.03;;;;;;;3.17;92.62;100984.34;4999616;28;20057;-79
2021/12/07 08:32:50;;;;;;;14.20;3.10;;;;;;;3.19;92.71;100981.75;5004517;28;20032;-79
2021/12/07 08:35:17;;;;;;;10.13;3.10;;;;;;;3.20;92.80;100992.09;5017255;28;20271;-79
2021/12/07 08:37:44;;;;;;;8.43;3.10;;;;;;;3.21;92.78;100990.38;5008633;28;20041;-79
2021/12/07 08:40:10;;;;;;;6.28;2.20;;;;;;;3.22;92.83;100986.88;5003086;28;20363;-79
2021/12/07 08:42:36;;;;;;;8.30;2.65;;;;;;;3.24;92.94;100985.19;5012614;28;20041;-79
2021/12/07 08:45:01;;;;;;;11.23;2.88;;;;;;;3.25;93.01;100984.28;5006839;28;20032;-79
2021/12/07 08:47:27;;;;;;;13.27;2.78;;;;;;;3.26;93.15;100983.44;5051593;28;20387;-79
2021/12/07 08:49:54;;;;;;;9.52;2.58;;;;;;;3.26;93.05;100988.59;5024674;28;20033;-79
2021/12/07 08:52:19;;;;;;;10.27;2.47;;;;;;;3.26;93.07;100984.28;5046187;28;20123;-79
2021/12/07 08:59:54;;;;;;;15.20;2.75;;;;;;;3.26;93.31;100986.88;5049262;28;20144;-79
2021/12/07 09:02:21;;;;;;;10.52;2.40;;;;;;;3.27;93.35;100979.94;5042005;28;20053;-79
2021/12/07 09:04:47;;;;;;;10.57;3.00;;;;;;;3.26;93.31;100994.63;5027567;28;20032;-79
2021/12/07 09:07:13;;;;;;;10.95;3.05;;;;;;;3.29;93.34;100985.13;5062645;28;20078;-79
2021/12/07 09:09:39;;;;;;;12.95;3.67;;;;;;;3.30;93.39;100984.25;5033143;28;20041;-79
2021/12/07 09:12:06;;;;;;;13.05;3.45;;;;;;;3.31;93.44;100986.84;5037910;28;20028;-79
2021/12/07 09:14:32;;;;;;;11.38;3.03;;;;;;;3.33;93.71;100987.69;5038680;28;20029;-79
2021/12/07 09:16:58;;;;;;;14.93;3.88;;;;;;;3.34;93.66;100975.59;5038040;28;20083;-79
2021/12/07 09:19:23;;;;;;;15.02;4.00;;;;;;;3.34;93.71;100973.84;5040419;28;20045;-79
2021/12/07 09:21:49;;;;;;;9.00;4.10;;;;;;;3.37;93.86;100978.16;5057101;28;20043;-79
2021/12/07 09:24:14;;;;;;;10.38;4.28;;;;;;;3.38;93.73;100965.19;5018644;28;20035;-79
2021/12/07 09:26:40;;;;;;;13.93;4.55;;;;;;;3.42;93.88;100958.25;5046896;28;20055;-79
2021/12/07 09:29:06;;;;;;;9.48;3.88;;;;;;;3.44;93.89;100959.97;5029188;28;20048;-79
2021/12/07 09:31:31;;;;;;;15.13;4.50;;;;;;;3.46;94.17;100968.56;5047918;28;20260;-80
2021/12/07 09:33:57;;;;;;;10.40;3.88;;;;;;;3.50;94.13;100966.81;5058111;28;20040;-79
2021/12/07 09:36:23;;;;;;;13.25;3.83;;;;;;;3.52;94.17;100967.66;5054857;28;20056;-79
2021/12/07 09:38:48;;;;;;;12.68;4.25;;;;;;;3.54;94.22;100967.66;5052197;28;20036;-79
2021/12/07 09:41:15;;;;;;;14.73;4.50;;;;;;;3.56;94.07;100978.84;5036252;28;20029;-79
2021/12/07 09:43:40;;;;;;;11.68;4.22;;;;;;;3.58;94.02;100982.28;5045064;28;20044;-79
2021/12/07 09:46:06;;;;;;;10.98;4.10;;;;;;;3.61;94.11;100977.06;5036596;28;21212;-79
2021/12/07 09:48:32;;;;;;;13.13;4.18;;;;;;;3.62;94.05;100979.66;5069871;28;20079;-79
2021/12/07 09:50:58;;;;;;;13.10;4.25;;;;;;;3.64;94.13;100977.91;5040751;28;20082;-79
2021/12/07 09:53:23;;;;;;;20.83;4.40;;;;;;;3.65;94.08;100989.13;5065433;28;20049;-79
2021/12/07 09:55:49;;;;;;;14.18;4.45;;;;;;;3.65;94.07;100995.13;5069825;28;20048;-79
2021/12/07 09:58:15;;;;;;;18.80;4.13;;;;;;;3.65;94.02;100999.47;5047747;28;20087;-79
2021/12/07 10:00:41;;;;;;;7.28;3.65;;;;;;;3.66;93.89;101003.78;5029966;28;20059;-79
2021/12/07 10:03:07;;;;;;;15.10;3.88;;;;;;;3.66;93.98;100996.03;5038780;28;20255;-79
2021/12/07 10:05:34;;;;;;;14.90;3.80;;;;;;;3.68;93.92;100990.84;5027898;28;20066;-79
2021/12/07 10:08:00;;;;;;;14.02;3.83;;;;;;;3.68;93.67;100986.50;5054202;28;20044;-79
2021/12/07 10:10:28;;;;;;;10.52;3.88;;;;;;;3.71;93.55;100989.06;5023925;28;20309;-79
2021/12/07 10:12:54;;;;;;;13.68;3.53;;;;;;;3.73;93.79;100982.13;5025353;28;20051;-80
2021/12/07 10:15:19;;;;;;;13.50;4.38;;;;;;;3.75;93.80;100976.94;5052518;28;20340;-80
2021/12/07 10:18:09;;;;;;;12.60;4.03;;;;;;;3.76;93.73;100976.91;5040070;28;20103;-80
2021/12/07 10:20:39;;;;;;;10.63;4.32;;;;;;;3.77;93.59;100963.09;5044115;28;20293;-79
2021/12/07 10:23:14;;;;;;;19.75;4.90;;;;;;;3.78;93.58;100957.06;5046635;28;20268;-79
2021/12/07 10:25:40;;;;;;;8.73;4.00;;;;;;;3.80;93.59;100947.53;5071549;28;20047;-79
2021/12/07 10:28:33;;;;;;;20.17;4.65;;;;;;;3.82;93.63;100944.88;5065967;28;20053;-79
2021/12/07 10:31:10;;;;;;;11.23;4.22;;;;;;;3.84;93.76;100936.25;5064474;28;20048;-79
2021/12/07 10:33:38;;;;;;;15.32;4.85;;;;;;;3.86;93.70;100928.47;5065003;28;20036;-79
2021/12/07 10:36:19;;;;;;;12.02;4.70;;;;;;;3.89;93.62;100922.38;5065987;28;20047;-80
2021/12/07 10:39:24;;;;;;;15.73;5.25;;;;;;;3.91;93.69;100921.50;5057906;28;20415;-79
2021/12/07 10:41:52;;;;;;;22.65;6.38;;;;;;;3.93;93.87;100918.84;5053826;28;20051;-79
2021/12/07 10:44:30;;;;;;;20.25;6.10;;;;;;;3.93;93.58;100906.78;5036813;28;20028;-79
2021/12/07 10:47:08;;;;;;;21.27;6.03;;;;;;;3.95;93.64;100902.44;5044203;28;20087;-79
2021/12/07 10:49:37;;;;;;;20.75;6.22;;;;;;;3.96;93.68;100900.69;5043933;28;20033;-79
2021/12/07 10:52:07;;;;;;;28.88;6.63;;;;;;;3.97;93.62;100902.41;5061603;28;20588;-79
2021/12/07 10:54:36;;;;;;;21.40;5.70;;;;;;;3.95;93.42;100897.25;5039311;28;20056;-79
2021/12/07 10:57:02;;;;;;;28.67;6.15;;;;;;;3.97;93.27;100900.69;5056441;28;20096;-80
2021/12/07 10:59:28;;;;;;;19.05;5.10;;;;;;;3.98;93.21;100901.53;5067241;28;20036;-80
2021/12/07 11:01:54;;;;;;;16.02;5.07;;;;;;;3.99;93.52;100903.25;5044624;28;20042;-80
2021/12/07 11:04:25;;;;;;;24.88;5.93;;;;;;;4.00;93.45;100912.72;5065785;28;20051;-79
2021/12/07 11:07:18;;;;;;;14.95;5.75;;;;;;;4.01;93.40;100911.88;5069881;28;20042;-80
2021/12/07 11:12:39;;;;;;;26.17;6.93;;;;;;;4.03;93.16;100902.34;5058190;28;20032;-80
2021/12/07 11:15:12;;;;;;;16.58;5.53;;;;;;;4.04;92.92;100896.28;5050477;28;20367;-80
2021/12/07 11:17:38;;;;;;;18.45;5.78;;;;;;;4.04;92.75;100894.53;5053791;28;20738;-80
2021/12/07 11:20:04;;;;;;;20.40;5.90;;;;;;;4.03;92.66;100892.81;5041436;28;20060;-80
2021/12/07 11:22:31;;;;;;;18.48;6.10;;;;;;;4.03;92.74;100882.44;5028779;28;20252;-80
2021/12/07 11:24:58;;;;;;;21.13;6.20;;;;;;;4.04;92.82;100881.59;5029652;28;20410;-80
2021/12/07 11:30:19;;;;;;;24.30;5.57;;;;;;;4.03;92.77;100864.31;5066429;28;20362;-80
2021/12/07 11:32:51;;;;;;;18.35;6.25;;;;;;;4.04;92.55;100870.38;5026521;28;20033;-80
2021/12/07 11:35:26;;;;;;;32.05;8.18;;;;;;;4.03;92.60;100853.94;5036284;28;20070;-80
2021/12/07 11:37:53;;;;;;;31.13;7.43;;;;;;;4.03;92.33;100848.75;5027878;28;20037;-80
2021/12/07 11:40:25;;;;;;;33.20;9.40;;;;;;;4.03;92.25;100848.75;5049705;28;20032;-80
2021/12/07 11:42:51;;;;;;;38.25;8.60;;;;;;;4.05;92.23;100843.56;5019913;28;20055;-80
2021/12/07 11:45:18;;;;;;;31.42;7.93;;;;;;;4.05;92.45;100828.00;5057593;28;20036;-80
2021/12/07 11:47:49;;;;;;;31.25;7.80;;;;;;;4.08;92.58;100814.16;5043141;28;20536;-80
2021/12/07 11:50:33;;;;;;;33.58;7.45;;;;;;;4.10;92.68;100817.59;5023082;28;20263;-80
2021/12/07 11:53:20;;;;;;;35.58;7.82;;;;;;;4.12;92.76;100798.53;5070408;28;20025;-80
2021/12/07 11:55:48;;;;;;;24.70;6.90;;;;;;;4.12;92.65;100795.09;5050978;28;20248;-80
2021/12/07 11:58:14;;;;;;;26.23;6.95;;;;;;;4.12;92.49;100785.56;5033456;28;20039;-80
2021/12/07 12:00:44;;;;;;;23.05;5.47;;;;;;;4.15;92.46;100770.00;5043720;28;20328;-80
2021/12/07 12:03:12;;;;;;;22.63;5.18;;;;;;;4.17;92.44;100755.25;5032533;28;20066;-80
2021/12/07 12:05:39;;;;;;;17.73;4.82;;;;;;;4.20;92.62;100754.34;5021833;28;20048;-80
2021/12/07 12:08:08;;;;;;;12.27;4.10;;;;;;;4.20;92.50;100755.22;5024473;28;20064;-80
2021/12/07 12:10:35;;;;;;;14.00;4.38;;;;;;;4.21;92.21;100756.06;5028776;28;20083;-80
2021/12/07 12:13:20;;;;;;;9.90;3.75;;;;;;;4.22;92.19;100752.56;5024506;28;20063;-80
2021/12/07 12:16:21;;;;;;;21.27;4.22;;;;;;;4.23;91.86;100738.75;5030327;28;20040;-80
2021/12/07 12:18:59;;;;;;;8.57;3.80;;;;;;;4.25;91.80;100734.41;5068775;28;20036;-80
2021/12/07 12:21:42;;;;;;;12.77;4.10;;;;;;;4.26;91.74;100733.53;5063307;28;20036;-80
2021/12/07 12:24:28;;;;;;;18.05;4.80;;;;;;;4.27;91.63;100714.47;5052160;28;20148;-80
2021/12/07 12:27:27;;;;;;;21.50;5.18;;;;;;;4.30;91.63;100719.63;5054997;28;20035;-80
2021/12/07 12:29:54;;;;;;;7.55;4.05;;;;;;;4.31;91.78;100718.75;5075381;28;20099;-80
2021/12/07 12:32:26;;;;;;;13.93;4.78;;;;;;;4.32;91.80;100715.25;5049743;28;20263;-80
2021/12/07 12:34:51;;;;;;;15.05;4.65;;;;;;;4.33;92.01;100705.75;5067924;28;20046;-80
2021/12/07 12:37:25;;;;;;;11.77;4.78;;;;;;;4.34;91.90;100697.09;5055222;28;20366;-80
2021/12/07 12:39:53;;;;;;;13.68;4.93;;;;;;;4.35;91.97;100670.31;5038841;28;20123;-80
2021/12/07 12:42:39;;;;;;;14.57;4.30;;;;;;;4.34;91.68;100659.06;5050917;28;20037;-80
2021/12/07 12:45:23;;;;;;;14.05;4.15;;;;;;;4.34;91.56;100682.38;5041140;28;20063;-80
2021/12/07 12:48:15;;;;;;;15.95;4.55;;;;;;;4.32;91.43;100662.56;5045763;28;20040;-80
2021/12/07 12:50:43;;;;;;;15.70;4.72;;;;;;;4.32;91.31;100636.63;5039401;28;20051;-80
2021/12/07 12:53:12;;;;;;;8.50;4.20;;;;;;;4.33;91.62;100653.88;5050884;28;20351;-80
2021/12/07 12:55:40;;;;;;;9.05;4.18;;;;;;;4.33;91.69;100638.31;5030888;28;20327;-80
2021/12/07 12:58:20;;;;;;;15.07;4.18;;;;;;;4.33;91.76;100636.63;5045885;28;20103;-80
2021/12/07 13:00:56;;;;;;;10.48;3.97;;;;;;;4.33;91.51;100630.56;5044986;28;20040;-80
2021/12/07 13:03:21;;;;;;;12.02;4.05;;;;;;;4.31;91.40;100621.94;5044772;28;20068;-80
2021/12/07 13:05:54;;;;;;;18.23;4.00;;;;;;;4.30;91.27;100628.88;5045941;28;20028;-80
2021/12/07 13:08:19;;;;;;;17.83;4.03;;;;;;;4.30;91.39;100613.34;5036441;28;20032;-80
2021/12/07 13:10:58;;;;;;;11.93;3.25;;;;;;;4.29;91.26;100593.47;5056611;28;20047;-80
2021/12/07 13:13:32;;;;;;;18.67;4.32;;;;;;;4.29;91.12;100593.47;5064876;28;20036;-80
2021/12/07 13:15:57;;;;;;;14.20;2.95;;;;;;;4.28;90.91;100581.41;5007588;28;20036;-80
2021/12/07 13:18:27;;;;;;;17.30;3.38;;;;;;;4.28;91.14;100583.16;5044409;28;20036;-80
2021/12/07 13:20:52;;;;;;;9.25;3.10;;;;;;;4.29;91.22;100580.50;5048632;28;20071;-80
2021/12/07 13:23:18;;;;;;;12.95;3.20;;;;;;;4.30;91.08;100574.44;5042220;28;20263;-80
2021/12/07 13:25:45;;;;;;;15.60;2.97;;;;;;;4.28;91.42;100565.84;5056047;28;20332;-80
2021/12/07 13:28:29;;;;;;;6.72;2.60;;;;;;;4.28;90.76;100559.81;5040545;28;20104;-80
2021/12/07 13:31:02;;;;;;;8.55;2.58;;;;;;;4.29;90.91;100551.13;5044258;28;20332;-80